Time;durP1;ratioP1;P1;durP2;ratioP2;P2;SDS_P1;SDS_P2;PMS_P1;PMS_P2;Temp;Humidity;BMP_temperature;BMP_pressure;BME280_temperature;BME280_humidity;BME280_pressure;Samples;Min_cycle;Max_cycle;Signal;HPM_P1;HPM_P2
2023/07/13 00:00:27;;;;;;;3.90;3.53;;;;;;;18.94;100.00;96714.38;5036961;28;20466;-59
2023/07/13 00:02:55;;;;;;;5.13;3.63;;;;;;;18.91;100.00;96699.53;5035716;28;20204;-59
2023/07/13 00:05:21;;;;;;;4.28;3.88;;;;;;;18.94;100.00;96698.31;5036538;28;20247;-59
2023/07/13 00:07:48;;;;;;;4.35;3.53;;;;;;;18.96;100.00;96693.56;5036771;28;20204;-59
2023/07/13 00:10:16;;;;;;;4.00;3.65;;;;;;;18.97;100.00;96690.69;5036988;28;20219;-60
2023/07/13 00:12:43;;;;;;;3.50;3.20;;;;;;;18.92;100.00;96681.59;5047219;28;20265;-59
2023/07/13 00:15:16;;;;;;;4.80;3.60;;;;;;;18.91;100.00;96679.94;5038688;28;20231;-59
2023/07/13 00:17:44;;;;;;;5.22;3.50;;;;;;;18.87;100.00;96676.81;5036764;28;20203;-59
2023/07/13 00:20:12;;;;;;;4.55;3.53;;;;;;;18.86;100.00;96673.31;5037041;28;20278;-59
2023/07/13 00:22:39;;;;;;;4.13;3.70;;;;;;;18.79;100.00;96672.41;5036762;28;20576;-60
2023/07/13 00:25:09;;;;;;;4.78;3.58;;;;;;;18.80;100.00;96679.44;5051947;28;20219;-59
2023/07/13 00:27:35;;;;;;;4.25;3.67;;;;;;;18.77;100.00;96677.16;5071416;28;20179;-58
2023/07/13 00:30:03;;;;;;;3.97;3.28;;;;;;;18.77;100.00;96674.47;5069534;28;20199;-60
2023/07/13 00:32:30;;;;;;;4.78;3.53;;;;;;;18.75;100.00;96668.47;5037217;28;20246;-58
2023/07/13 00:35:00;;;;;;;3.83;3.53;;;;;;;18.75;100.00;96671.16;5037044;28;20567;-59
2023/07/13 00:37:27;;;;;;;6.32;3.58;;;;;;;18.75;100.00;96676.50;5041324;28;20195;-59
2023/07/13 00:39:54;;;;;;;4.88;3.17;;;;;;;18.73;100.00;96678.56;5036515;28;20216;-59
2023/07/13 00:42:21;;;;;;;3.63;3.33;;;;;;;18.71;100.00;96669.03;5062961;28;20202;-59
2023/07/13 00:45:08;;;;;;;4.00;3.20;;;;;;;18.70;100.00;96673.59;5035772;28;20214;-59
2023/07/13 00:47:36;;;;;;;6.25;3.42;;;;;;;18.65;100.00;96667.97;5049846;28;20211;-59
2023/07/13 00:50:08;;;;;;;7.00;3.60;;;;;;;18.60;100.00;96673.06;5036423;28;20215;-59
2023/07/13 00:52:37;;;;;;;3.90;3.28;;;;;;;18.60;100.00;96683.78;5049308;28;20207;-59
2023/07/13 00:55:03;;;;;;;3.53;3.15;;;;;;;18.59;100.00;96671.41;5038456;28;20230;-59
2023/07/13 00:57:33;;;;;;;3.95;3.58;;;;;;;18.60;100.00;96656.19;5035523;28;20208;-59
2023/07/13 01:00:06;;;;;;;3.42;3.20;;;;;;;18.60;100.00;96646.28;5034814;28;20208;-59
2023/07/13 01:02:33;;;;;;;6.00;3.42;;;;;;;18.57;100.00;96645.81;5036097;28;20597;-58
2023/07/13 01:05:01;;;;;;;3.70;3.40;;;;;;;18.54;100.00;96638.19;5035546;28;20719;-60
2023/07/13 01:07:28;;;;;;;2.90;2.70;;;;;;;18.57;100.00;96652.03;5035570;28;20285;-59
2023/07/13 01:09:59;;;;;;;5.40;3.50;;;;;;;18.56;100.00;96658.41;5035810;28;20290;-59
2023/07/13 01:12:26;;;;;;;5.57;3.10;;;;;;;18.51;100.00;96663.50;5035319;28;20621;-59
2023/07/13 01:15:00;;;;;;;3.50;3.20;;;;;;;18.46;100.00;96668.56;5035335;28;20235;-60
2023/07/13 01:17:27;;;;;;;3.63;2.80;;;;;;;18.42;100.00;96676.16;5035265;28;20218;-59
2023/07/13 01:19:53;;;;;;;4.07;3.35;;;;;;;18.41;100.00;96676.34;5035710;28;20208;-59
2023/07/13 01:22:25;;;;;;;3.42;3.17;;;;;;;18.39;100.00;96673.88;5044897;28;20636;-60
2023/07/13 01:24:51;;;;;;;3.33;3.03;;;;;;;18.35;100.00;96669.91;5038410;28;20200;-59
2023/07/13 01:27:23;;;;;;;3.10;2.90;;;;;;;18.33;100.00;96671.13;5045536;28;20212;-59
2023/07/13 01:29:49;;;;;;;7.60;3.10;;;;;;;18.28;100.00;96674.38;5065404;28;20238;-59
2023/07/13 01:32:23;;;;;;;3.30;3.00;;;;;;;18.28;100.00;96673.56;5035403;28;20208;-60
2023/07/13 01:34:50;;;;;;;3.33;3.03;;;;;;;18.29;100.00;96676.03;5035061;28;20238;-59
2023/07/13 01:37:17;;;;;;;2.92;2.72;;;;;;;18.32;100.00;96682.84;5039082;28;20214;-59
2023/07/13 01:39:45;;;;;;;3.63;3.30;;;;;;;18.33;100.00;96693.38;5048924;28;20269;-60
2023/07/13 01:42:11;;;;;;;3.92;3.42;;;;;;;18.33;100.00;96687.19;5035291;28;20262;-59
2023/07/13 01:44:37;;;;;;;5.05;3.63;;;;;;;18.31;100.00;96697.28;5034959;28;20216;-59
2023/07/13 01:47:05;;;;;;;7.00;3.40;;;;;;;18.32;100.00;96691.72;5035038;28;20633;-58
2023/07/13 01:49:31;;;;;;;3.92;2.95;;;;;;;18.32;100.00;96690.88;5034949;28;20212;-59
2023/07/13 01:51:59;;;;;;;3.83;3.33;;;;;;;18.33;100.00;96700.56;5035049;28;20281;-59
2023/07/13 01:54:27;;;;;;;3.58;3.22;;;;;;;18.30;100.00;96709.00;5034755;28;20295;-59
2023/07/13 01:56:57;;;;;;;4.55;3.13;;;;;;;18.28;100.00;96716.41;5035045;28;20603;-58
2023/07/13 01:59:23;;;;;;;3.33;3.03;;;;;;;18.26;100.00;96713.06;5034996;28;20518;-59
2023/07/13 02:01:49;;;;;;;3.42;3.20;;;;;;;18.30;100.00;96700.97;5035094;28;20265;-59
2023/07/13 02:04:16;;;;;;;3.63;3.33;;;;;;;18.32;100.00;96709.63;5034832;28;20684;-59
2023/07/13 02:06:43;;;;;;;4.07;3.42;;;;;;;18.36;100.00;96705.53;5035107;28;20208;-58
2023/07/13 02:09:09;;;;;;;4.03;3.25;;;;;;;18.37;100.00;96705.38;5034656;28;20223;-58
2023/07/13 02:11:39;;;;;;;3.85;3.08;;;;;;;18.39;100.00;96697.97;5035072;28;20583;-59
2023/07/13 02:14:07;;;;;;;3.15;2.88;;;;;;;18.40;100.00;96688.09;5034763;28;20541;-58
2023/07/13 02:16:33;;;;;;;3.05;2.85;;;;;;;18.47;100.00;96683.63;5048120;28;20586;-59
2023/07/13 02:19:00;;;;;;;2.72;2.53;;;;;;;18.48;100.00;96679.94;5037773;28;20204;-58
2023/07/13 02:21:26;;;;;;;3.20;3.00;;;;;;;18.48;100.00;96674.56;5039004;28;20235;-58
2023/07/13 02:23:53;;;;;;;3.00;2.80;;;;;;;18.49;100.00;96670.88;5039155;28;20208;-58
2023/07/13 02:26:20;;;;;;;3.72;2.60;;;;;;;18.48;100.00;96679.94;5041021;28;20214;-58
2023/07/13 02:28:46;;;;;;;3.85;2.67;;;;;;;18.52;100.00;96683.09;5042053;28;20252;-59
2023/07/13 02:31:16;;;;;;;3.45;3.13;;;;;;;18.52;100.00;96689.28;5044042;28;20624;-59
2023/07/13 02:33:45;;;;;;;3.67;2.85;;;;;;;18.50;100.00;96680.56;5064291;28;20300;-58
2023/07/13 02:36:12;;;;;;;6.18;3.28;;;;;;;18.49;100.00;96684.28;5065127;28;20223;-59
2023/07/13 02:38:38;;;;;;;6.13;3.13;;;;;;;18.52;100.00;96675.88;5043817;28;20230;-59
2023/07/13 02:41:05;;;;;;;3.65;3.17;;;;;;;18.53;100.00;96677.53;5041993;28;20222;-59
2023/07/13 02:43:32;;;;;;;5.05;3.45;;;;;;;18.52;100.00;96686.59;5054120;28;20217;-60
2023/07/13 02:46:03;;;;;;;3.78;3.33;;;;;;;18.47;100.00;96683.63;5043809;28;20200;-59
2023/07/13 02:48:32;;;;;;;6.88;2.97;;;;;;;18.46;100.00;96673.91;5042534;28;20290;-59
2023/07/13 02:50:59;;;;;;;3.35;3.05;;;;;;;18.42;100.00;96684.19;5047984;28;20241;-60
2023/07/13 02:53:26;;;;;;;3.42;3.13;;;;;;;18.46;100.00;96684.63;5062903;28;20565;-59
2023/07/13 02:55:54;;;;;;;2.97;2.78;;;;;;;18.45;100.00;96680.31;5058060;28;20224;-58
2023/07/13 02:58:20;;;;;;;3.50;3.17;;;;;;;18.34;100.00;96678.16;5037882;28;20219;-58
2023/07/13 03:00:48;;;;;;;3.97;3.42;;;;;;;18.35;100.00;96685.16;5037730;28;20218;-58
2023/07/13 03:03:15;;;;;;;3.20;2.90;;;;;;;18.34;100.00;96680.81;5051322;28;20211;-59
2023/07/13 03:05:49;;;;;;;4.07;3.40;;;;;;;18.34;100.00;96675.47;5042659;28;20242;-58
2023/07/13 03:08:16;;;;;;;3.28;3.08;;;;;;;18.30;100.00;96684.88;5043151;28;20207;-59
2023/07/13 03:10:43;;;;;;;6.53;2.50;;;;;;;18.33;100.00;96679.16;5037135;28;20536;-59
2023/07/13 03:13:09;;;;;;;3.10;2.72;;;;;;;18.27;100.00;96678.06;5050065;28;20540;-59
2023/07/13 03:15:35;;;;;;;2.80;2.58;;;;;;;18.22;100.00;96677.81;5037616;28;20247;-59
2023/07/13 03:18:02;;;;;;;3.33;2.97;;;;;;;18.23;100.00;96676.78;5037734;28;20212;-59
2023/07/13 03:20:29;;;;;;;3.22;2.90;;;;;;;18.25;100.00;96679.25;5037492;28;20211;-59
2023/07/13 03:22:57;;;;;;;5.03;2.75;;;;;;;18.21;100.00;96683.38;5037277;28;20222;-59
2023/07/13 03:25:23;;;;;;;4.22;3.00;;;;;;;18.24;100.00;96682.97;5037524;28;20215;-58
2023/07/13 03:27:50;;;;;;;2.63;2.45;;;;;;;18.26;100.00;96686.28;5050005;28;20221;-59
2023/07/13 03:30:17;;;;;;;3.00;2.80;;;;;;;18.25;100.00;96685.44;5035221;28;20208;-59
2023/07/13 03:32:44;;;;;;;3.10;2.83;;;;;;;18.21;100.00;96689.53;5037075;28;20529;-60
2023/07/13 03:35:12;;;;;;;3.60;3.00;;;;;;;18.16;100.00;96683.94;5036879;28;20215;-59
2023/07/13 03:37:42;;;;;;;3.03;2.83;;;;;;;18.21;100.00;96696.75;5043842;28;20195;-58
2023/07/13 03:40:13;;;;;;;6.95;2.97;;;;;;;18.20;100.00;96692.41;5056987;28;20211;-58
2023/07/13 03:42:39;;;;;;;3.20;3.00;;;;;;;18.23;100.00;96687.50;5039462;28;20211;-59
2023/07/13 03:45:09;;;;;;;2.95;2.75;;;;;;;18.26;100.00;96686.28;5036887;28;20212;-58
2023/07/13 03:47:35;;;;;;;4.78;3.10;;;;;;;18.27;100.00;96687.97;5036924;28;20215;-59
2023/07/13 03:50:02;;;;;;;3.05;2.75;;;;;;;18.29;100.00;96680.56;5037059;28;20603;-58
2023/07/13 03:52:29;;;;;;;4.50;2.92;;;;;;;18.32;100.00;96686.34;5036798;28;20212;-59
2023/07/13 03:54:56;;;;;;;3.17;2.85;;;;;;;18.28;100.00;96684.25;5036674;28;20222;-58
2023/07/13 03:57:26;;;;;;;3.40;3.10;;;;;;;18.33;100.00;96687.19;5035889;28;20544;-59
2023/07/13 03:59:53;;;;;;;3.28;2.97;;;;;;;18.32;100.00;96685.53;5036423;28;20655;-58
2023/07/13 04:02:19;;;;;;;3.28;2.97;;;;;;;18.25;100.00;96688.13;5041730;28;20534;-58
2023/07/13 04:04:45;;;;;;;3.30;2.95;;;;;;;18.22;100.00;96696.53;5044158;28;20549;-59
2023/07/13 04:07:12;;;;;;;3.60;2.95;;;;;;;18.23;100.00;96689.34;5036537;28;20215;-58
2023/07/13 04:09:39;;;;;;;5.30;3.10;;;;;;;18.22;100.00;96695.72;5048672;28;20222;-59
2023/07/13 04:12:06;;;;;;;4.47;3.42;;;;;;;18.13;100.00;96700.38;5042331;28;20272;-59
2023/07/13 04:14:37;;;;;;;4.15;3.78;;;;;;;18.16;100.00;96707.19;5055361;28;20229;-58
2023/07/13 04:17:04;;;;;;;4.22;3.92;;;;;;;18.14;100.00;96699.31;5054736;28;20230;-58
2023/07/13 04:19:32;;;;;;;4.30;4.00;;;;;;;18.20;100.00;96703.94;5056224;28;20215;-58
2023/07/13 04:21:58;;;;;;;4.13;3.83;;;;;;;18.21;100.00;96705.59;5055822;28;20207;-58
2023/07/13 04:24:25;;;;;;;4.90;4.30;;;;;;;18.28;100.00;96716.41;5055981;28;20689;-58
2023/07/13 04:26:52;;;;;;;4.47;4.07;;;;;;;18.27;100.00;96712.88;5055962;28;20206;-58
2023/07/13 04:29:20;;;;;;;3.47;3.25;;;;;;;18.26;100.00;96715.72;5054420;28;20616;-59
2023/07/13 04:31:49;;;;;;;3.20;2.90;;;;;;;18.26;100.00;96719.25;5056038;28;20290;-58
2023/07/13 04:34:16;;;;;;;3.30;3.00;;;;;;;18.28;100.00;96717.19;5055777;28;20226;-59
2023/07/13 04:36:43;;;;;;;3.08;2.80;;;;;;;18.27;100.00;96715.56;5054498;28;20223;-59
2023/07/13 04:39:10;;;;;;;3.08;2.75;;;;;;;18.26;100.00;96718.41;5051555;28;20234;-58
2023/07/13 04:41:36;;;;;;;2.88;2.67;;;;;;;18.27;100.00;96717.41;5068352;28;20268;-59
2023/07/13 04:44:03;;;;;;;2.88;2.67;;;;;;;18.30;100.00;96725.06;5071240;28;20195;-58
2023/07/13 04:46:32;;;;;;;3.53;2.60;;;;;;;18.27;100.00;96731.63;5040802;28;20235;-59
2023/07/13 04:49:00;;;;;;;2.63;2.33;;;;;;;18.29;100.00;96728.75;5039993;28;20222;-58
2023/07/13 04:51:27;;;;;;;3.10;2.90;;;;;;;18.31;100.00;96734.75;5046544;28;20207;-58
2023/07/13 04:53:53;;;;;;;3.05;2.85;;;;;;;18.36;100.00;96735.00;5036036;28;20212;-58
2023/07/13 04:56:20;;;;;;;4.28;3.15;;;;;;;18.33;100.00;96735.38;5035576;28;20240;-58
2023/07/13 04:58:47;;;;;;;4.43;3.78;;;;;;;18.37;100.00;96744.69;5034922;28;20211;-59
2023/07/13 05:01:14;;;;;;;3.65;3.35;;;;;;;18.35;100.00;96744.88;5036557;28;20548;-58
2023/07/13 05:03:44;;;;;;;3.50;3.20;;;;;;;18.45;100.00;96754.47;5037593;28;20719;-59
2023/07/13 05:06:13;;;;;;;3.22;2.92;;;;;;;18.46;100.00;96756.13;5036616;28;20227;-59
2023/07/13 05:08:40;;;;;;;2.78;2.58;;;;;;;18.46;100.00;96756.94;5040449;28;20215;-58
2023/07/13 05:11:10;;;;;;;3.10;2.80;;;;;;;18.46;100.00;96758.81;5044325;28;20218;-58
2023/07/13 05:13:36;;;;;;;3.08;2.63;;;;;;;18.45;100.00;96754.47;5048756;28;20212;-58
2023/07/13 05:16:07;;;;;;;3.03;2.72;;;;;;;18.42;100.00;96758.38;5035785;28;20545;-58
2023/07/13 05:18:34;;;;;;;3.28;2.40;;;;;;;18.46;100.00;96766.84;5035395;28;20219;-58
2023/07/13 05:21:02;;;;;;;4.53;3.10;;;;;;;18.46;100.00;96770.31;5036284;28;20207;-58
2023/07/13 05:23:31;;;;;;;3.22;3.03;;;;;;;18.47;100.00;96763.97;5036347;28;20215;-59
2023/07/13 05:25:58;;;;;;;3.47;3.03;;;;;;;18.43;100.00;96776.06;5048673;28;20203;-58
2023/07/13 05:28:24;;;;;;;3.20;2.97;;;;;;;18.43;100.00;96773.38;5065960;28;20208;-60
2023/07/13 05:30:53;;;;;;;3.28;3.08;;;;;;;18.35;100.00;96781.56;5053610;28;20283;-57
2023/07/13 05:33:23;;;;;;;3.97;3.58;;;;;;;18.28;100.00;96783.31;5051455;28;20204;-59
2023/07/13 05:35:50;;;;;;;3.88;3.47;;;;;;;18.25;100.00;96783.66;5064815;28;20281;-58
2023/07/13 05:38:16;;;;;;;5.63;3.47;;;;;;;18.29;100.00;96780.44;5064971;28;20222;-58
2023/07/13 05:40:45;;;;;;;4.20;3.28;;;;;;;18.33;100.00;96773.69;5075093;28;20233;-58
2023/07/13 05:43:14;;;;;;;4.00;3.60;;;;;;;18.36;100.00;96775.16;5094372;28;20202;-58
2023/07/13 05:45:41;;;;;;;3.60;3.40;;;;;;;18.39;100.00;96788.16;5062722;28;20203;-60
2023/07/13 05:48:07;;;;;;;4.93;3.42;;;;;;;18.39;100.00;96798.88;5052106;28;20218;-60
2023/07/13 05:50:34;;;;;;;5.40;4.50;;;;;;;18.40;100.00;96804.06;5066836;28;20211;-59
2023/07/13 05:53:02;;;;;;;4.95;3.50;;;;;;;18.29;100.00;96811.72;5062600;28;20234;-59
2023/07/13 05:55:29;;;;;;;3.60;3.28;;;;;;;18.28;100.00;96815.44;5053503;28;20222;-59
2023/07/13 05:57:57;;;;;;;4.72;3.25;;;;;;;18.27;100.00;96822.66;5046003;28;20643;-58
2023/07/13 06:00:24;;;;;;;5.60;3.53;;;;;;;18.28;100.00;96824.28;5039209;28;20298;-59
2023/07/13 06:02:53;;;;;;;3.85;3.40;;;;;;;18.33;100.00;96821.06;5039040;28;20640;-59
2023/07/13 06:05:20;;;;;;;5.45;3.58;;;;;;;18.34;100.00;96820.88;5038917;28;20277;-58
2023/07/13 06:07:46;;;;;;;4.03;3.63;;;;;;;18.34;100.00;96823.56;5038780;28;20265;-58
2023/07/13 06:10:12;;;;;;;3.40;3.10;;;;;;;18.40;100.00;96821.97;5038965;28;20591;-57
2023/07/13 06:12:39;;;;;;;3.53;3.33;;;;;;;18.30;100.00;96819.59;5038549;28;20200;-59
2023/07/13 06:15:09;;;;;;;3.22;2.97;;;;;;;18.32;100.00;96824.75;5038640;28;20215;-59
2023/07/13 06:17:36;;;;;;;2.78;2.60;;;;;;;18.34;100.00;96822.72;5036692;28;20232;-58
2023/07/13 06:20:02;;;;;;;3.03;2.83;;;;;;;18.33;100.00;96821.88;5038948;28;20208;-58
2023/07/13 06:22:29;;;;;;;3.78;2.65;;;;;;;18.34;100.00;96822.72;5038617;28;20243;-58
2023/07/13 06:24:56;;;;;;;4.28;3.40;;;;;;;18.33;100.00;96831.75;5038698;28;20222;-58
2023/07/13 06:27:22;;;;;;;3.03;2.90;;;;;;;18.35;100.00;96840.47;5039369;28;20212;-58
2023/07/13 06:29:50;;;;;;;5.10;2.90;;;;;;;18.35;100.00;96830.56;5038160;28;20258;-59
2023/07/13 06:32:18;;;;;;;3.10;2.80;;;;;;;18.37;100.00;96835.72;5038426;28;20254;-58
2023/07/13 06:34:45;;;;;;;3.63;3.33;;;;;;;18.36;100.00;96840.25;5038361;28;20212;-59
2023/07/13 06:37:11;;;;;;;5.82;3.30;;;;;;;18.40;100.00;96851.44;5041301;28;20229;-60
2023/07/13 06:39:38;;;;;;;3.00;2.83;;;;;;;18.40;100.00;96854.09;5041861;28;20273;-59
2023/07/13 06:42:05;;;;;;;3.35;3.05;;;;;;;18.46;100.00;96849.88;5041642;28;20265;-58
2023/07/13 06:44:38;;;;;;;3.60;3.30;;;;;;;18.48;100.00;96856.69;5044948;28;20211;-60
2023/07/13 06:47:05;;;;;;;3.75;3.45;;;;;;;18.50;100.00;96845.78;5054489;28;20226;-59
2023/07/13 06:49:33;;;;;;;3.83;3.40;;;;;;;18.46;100.00;96853.34;5066697;28;20218;-58
2023/07/13 06:52:00;;;;;;;3.10;2.90;;;;;;;18.47;100.00;96862.22;5081078;28;20195;-58
2023/07/13 06:54:27;;;;;;;3.80;3.50;;;;;;;18.47;100.00;96860.38;5059112;28;20203;-59
2023/07/13 06:56:54;;;;;;;4.68;3.03;;;;;;;18.41;100.00;96861.13;5062077;28;20258;-58
2023/07/13 06:59:22;;;;;;;3.13;2.92;;;;;;;18.44;100.00;96860.75;5038108;28;20203;-58
2023/07/13 07:01:50;;;;;;;4.30;3.13;;;;;;;18.46;100.00;96858.69;5038308;28;20211;-58
2023/07/13 07:04:16;;;;;;;2.97;2.78;;;;;;;18.50;100.00;96868.03;5045001;28;20207;-58
2023/07/13 07:06:44;;;;;;;3.50;3.20;;;;;;;18.47;100.00;96868.41;5044873;28;20204;-58
2023/07/13 07:09:11;;;;;;;3.22;3.03;;;;;;;18.53;100.00;96861.53;5038075;28;20298;-58
2023/07/13 07:11:38;;;;;;;3.17;2.88;;;;;;;18.54;100.00;96844.41;5038894;28;20594;-59
2023/07/13 07:14:06;;;;;;;2.95;2.75;;;;;;;18.57;100.00;96844.88;5037894;28;20208;-59
2023/07/13 07:16:32;;;;;;;4.38;3.10;;;;;;;18.57;100.00;96858.25;5038649;28;20219;-58
2023/07/13 07:19:00;;;;;;;3.42;3.00;;;;;;;18.58;100.00;96849.22;5057380;28;20690;-59
2023/07/13 07:21:27;;;;;;;3.03;2.83;;;;;;;18.60;100.00;96860.56;5055991;28;20211;-58
2023/07/13 07:23:57;;;;;;;2.83;2.63;;;;;;;18.64;100.00;96867.19;5062621;28;20196;-59
2023/07/13 07:26:24;;;;;;;3.72;2.88;;;;;;;18.60;100.00;96871.28;5062731;28;20241;-58
2023/07/13 07:28:51;;;;;;;3.05;2.83;;;;;;;18.62;100.00;96863.91;5060534;28;20200;-58
2023/07/13 07:31:18;;;;;;;2.70;2.50;;;;;;;18.73;100.00;96868.78;5063826;28;20204;-57
2023/07/13 07:33:45;;;;;;;2.45;2.25;;;;;;;18.70;100.00;96868.31;5061811;28;20295;-56
2023/07/13 07:36:11;;;;;;;2.42;2.22;;;;;;;18.72;100.00;96874.31;5063946;28;20199;-57
2023/07/13 07:38:38;;;;;;;2.28;2.17;;;;;;;18.77;100.00;96878.09;5063368;28;20262;-57
2023/07/13 07:41:06;;;;;;;2.03;1.92;;;;;;;18.67;100.00;96871.38;5062373;28;20204;-58
2023/07/13 07:43:33;;;;;;;2.00;1.88;;;;;;;18.71;100.00;96865.44;5061134;28;20195;-57
2023/07/13 07:46:00;;;;;;;1.70;1.60;;;;;;;18.74;100.00;96864.25;5052632;28;20690;-57
2023/07/13 07:48:27;;;;;;;2.72;1.95;;;;;;;18.78;100.00;96868.19;5048432;28;20211;-58
2023/07/13 07:50:53;;;;;;;2.85;2.65;;;;;;;18.84;100.00;96868.28;5047839;28;20206;-58
2023/07/13 07:53:20;;;;;;;2.40;2.30;;;;;;;18.91;100.00;96867.53;5046471;28;20208;-57
2023/07/13 07:55:47;;;;;;;2.42;2.08;;;;;;;19.02;100.00;96869.72;5058997;28;20604;-59
2023/07/13 07:58:15;;;;;;;1.85;1.75;;;;;;;19.17;100.00;96873.16;5057340;28;20229;-57
2023/07/13 08:00:41;;;;;;;2.30;2.20;;;;;;;19.29;100.00;96877.00;5048116;28;20211;-58
2023/07/13 08:03:08;;;;;;;2.33;2.22;;;;;;;19.37;100.00;96869.66;5043485;28;20207;-58
2023/07/13 08:05:36;;;;;;;2.25;2.00;;;;;;;19.56;100.00;96880.78;5042933;28;20636;-59
2023/07/13 08:08:03;;;;;;;3.88;2.63;;;;;;;20.12;100.00;96873.59;5043643;28;20232;-58
2023/07/13 08:10:29;;;;;;;2.28;2.08;;;;;;;20.72;100.00;96875.59;5044218;28;20222;-58
2023/07/13 08:12:56;;;;;;;1.88;1.77;;;;;;;21.12;100.00;96877.38;5043205;28;20204;-58
2023/07/13 08:15:23;;;;;;;2.80;1.80;;;;;;;21.21;100.00;96872.66;5042780;28;20199;-57
2023/07/13 08:17:51;;;;;;;2.80;1.63;;;;;;;21.24;100.00;96881.16;5043128;28;20224;-58
2023/07/13 08:20:18;;;;;;;2.05;1.95;;;;;;;21.28;100.00;96881.56;5043476;28;20208;-58
2023/07/13 08:22:44;;;;;;;1.55;1.45;;;;;;;21.28;100.00;96884.25;5043423;28;20212;-58
2023/07/13 08:25:10;;;;;;;1.70;1.60;;;;;;;21.25;100.00;96887.38;5044474;28;20233;-59
2023/07/13 08:27:37;;;;;;;2.13;1.70;;;;;;;21.03;100.00;96889.34;5045143;28;20659;-59
2023/07/13 08:30:05;;;;;;;1.70;1.60;;;;;;;21.05;100.00;96881.88;5044248;28;20253;-59
2023/07/13 08:32:33;;;;;;;1.92;1.83;;;;;;;21.08;100.00;96878.78;5042730;28;20227;-58
2023/07/13 08:35:00;;;;;;;2.22;1.33;;;;;;;20.88;100.00;96879.75;5043543;28;20215;-60
2023/07/13 08:37:27;;;;;;;2.00;1.80;;;;;;;20.98;100.00;96874.81;5042762;28;20234;-60
2023/07/13 08:39:53;;;;;;;1.63;1.52;;;;;;;20.97;100.00;96886.63;5042786;28;20217;-60
2023/07/13 08:42:32;;;;;;;1.60;1.50;;;;;;;20.85;100.00;96881.84;5043095;28;20677;-60
2023/07/13 08:45:09;;;;;;;1.88;1.77;;;;;;;20.90;100.00;96885.78;5043145;28;20532;-60
2023/07/13 08:47:41;;;;;;;2.60;1.80;;;;;;;21.01;100.00;96880.63;5043154;28;20214;-60
2023/07/13 08:50:12;;;;;;;1.77;1.67;;;;;;;21.04;100.00;96882.09;5044922;28;20313;-60
2023/07/13 08:52:41;;;;;;;3.15;1.95;;;;;;;21.17;100.00;96880.31;5043928;28;20227;-59
2023/07/13 08:55:14;;;;;;;2.17;1.98;;;;;;;21.29;100.00;96889.41;5044645;28;20204;-58
2023/07/13 08:57:42;;;;;;;3.00;2.00;;;;;;;21.25;100.00;96880.13;5046897;28;20250;-59
2023/07/13 09:00:11;;;;;;;1.80;1.70;;;;;;;21.15;100.00;96881.56;5052368;28;20199;-59
2023/07/13 09:02:43;;;;;;;2.33;1.90;;;;;;;21.22;100.00;96871.63;5045872;28;20305;-60
2023/07/13 09:05:13;;;;;;;1.83;1.73;;;;;;;21.21;100.00;96875.34;5045982;28;20236;-59
2023/07/13 09:07:46;;;;;;;2.20;2.10;;;;;;;21.37;100.00;96877.66;5046910;28;20207;-59
2023/07/13 09:10:16;;;;;;;7.25;6.43;;;;;;;21.53;100.00;96879.13;5046377;28;20199;-59
2023/07/13 09:12:50;;;;;;;2.85;2.22;;;;;;;21.40;100.00;96882.63;5048065;28;20221;-60
2023/07/13 09:15:24;;;;;;;2.33;2.22;;;;;;;21.23;100.00;96892.09;5045570;28;20208;-59
2023/07/13 09:17:55;;;;;;;2.63;1.98;;;;;;;21.24;100.00;96880.31;5046993;28;20246;-59
2023/07/13 09:20:26;;;;;;;3.42;2.13;;;;;;;21.18;100.00;96887.34;5046202;28;20200;-59
2023/07/13 09:22:56;;;;;;;2.53;2.08;;;;;;;21.19;100.00;96872.84;5049141;28;20196;-60
2023/07/13 09:25:28;;;;;;;2.75;2.40;;;;;;;21.30;100.00;96872.25;5046762;28;20230;-60
2023/07/13 09:27:59;;;;;;;3.35;2.10;;;;;;;21.41;100.00;96880.75;5048260;28;20214;-60
2023/07/13 09:30:34;;;;;;;3.03;2.22;;;;;;;21.37;100.00;96883.03;5045562;28;20199;-60
2023/07/13 09:33:02;;;;;;;3.20;2.00;;;;;;;21.51;100.00;96881.19;5049081;28;20710;-60
2023/07/13 09:35:30;;;;;;;2.55;2.08;;;;;;;21.49;100.00;96888.63;5042014;28;20207;-59
2023/07/13 09:38:02;;;;;;;2.10;2.00;;;;;;;21.49;100.00;96891.31;5042725;28;20231;-59
2023/07/13 09:40:37;;;;;;;2.10;1.85;;;;;;;21.47;100.00;96888.03;5041484;28;20207;-59
2023/07/13 09:43:04;;;;;;;3.65;2.47;;;;;;;21.26;100.00;96897.06;5040951;28;20229;-59
2023/07/13 09:45:34;;;;;;;1.98;1.88;;;;;;;21.33;100.00;96898.75;5041886;28;20222;-59
2023/07/13 09:48:06;;;;;;;3.13;2.30;;;;;;;21.40;100.00;96896.06;5041316;28;20207;-59
2023/07/13 09:50:35;;;;;;;2.33;2.22;;;;;;;21.44;100.00;96891.94;5041996;28;20858;-59
2023/07/13 09:53:04;;;;;;;2.47;2.28;;;;;;;21.50;100.00;96899.22;5042167;28;20245;-59
2023/07/13 09:55:34;;;;;;;3.85;2.17;;;;;;;21.56;100.00;96898.38;5042506;28;20381;-59
2023/07/13 09:58:06;;;;;;;2.50;2.30;;;;;;;21.57;100.00;96894.66;5041906;28;20309;-59
2023/07/13 10:00:34;;;;;;;2.20;2.08;;;;;;;21.63;100.00;96901.91;5042598;28;20200;-59
2023/07/13 10:03:05;;;;;;;5.03;2.25;;;;;;;21.59;100.00;96897.97;5040752;28;20650;-60
2023/07/13 10:05:42;;;;;;;2.55;2.00;;;;;;;21.62;100.00;96894.84;5040867;28;20687;-59
2023/07/13 10:08:18;;;;;;;3.10;2.40;;;;;;;21.60;100.00;96896.94;5040933;28;20548;-60
2023/07/13 10:10:45;;;;;;;3.28;2.00;;;;;;;21.60;100.00;96901.50;5041398;28;20290;-59
2023/07/13 10:13:26;;;;;;;2.30;2.15;;;;;;;21.66;100.00;96904.19;5040913;28;20215;-60
2023/07/13 10:15:53;;;;;;;3.85;2.47;;;;;;;21.65;100.00;96904.38;5040764;28;20654;-59
2023/07/13 10:18:22;;;;;;;2.67;2.50;;;;;;;21.65;100.00;96902.50;5041524;28;20227;-58
2023/07/13 10:20:49;;;;;;;3.13;2.10;;;;;;;21.62;100.00;96904.78;5042000;28;20207;-59
2023/07/13 10:23:22;;;;;;;4.70;4.30;;;;;;;21.62;100.00;96905.63;5041746;28;20354;-59
2023/07/13 10:25:51;;;;;;;4.43;3.28;;;;;;;21.68;100.00;96904.00;5041826;28;20238;-60
2023/07/13 10:28:26;;;;;;;2.70;2.50;;;;;;;21.92;100.00;96910.66;5041417;28;20208;-60
2023/07/13 10:30:53;;;;;;;5.20;4.70;;;;;;;22.08;100.00;96912.91;5041349;28;20207;-59
2023/07/13 10:33:23;;;;;;;3.15;2.85;;;;;;;22.08;100.00;96915.59;5041319;28;20215;-59
2023/07/13 10:35:50;;;;;;;2.40;2.30;;;;;;;21.95;100.00;96910.22;5042490;28;20307;-61
2023/07/13 10:38:21;;;;;;;2.80;2.28;;;;;;;22.11;100.00;96921.41;5047503;28;20223;-61
2023/07/13 10:40:54;;;;;;;3.42;2.17;;;;;;;22.24;99.36;96905.25;5050274;28;20909;-60
2023/07/13 10:43:24;;;;;;;1.85;1.73;;;;;;;22.37;98.05;96904.38;5045551;28;20219;-61
2023/07/13 10:45:51;;;;;;;2.85;2.50;;;;;;;22.45;98.86;96908.72;5046142;28;20210;-60
2023/07/13 10:48:18;;;;;;;2.10;2.00;;;;;;;22.66;98.00;96908.47;5049477;28;20227;-60
2023/07/13 10:50:47;;;;;;;2.20;2.10;;;;;;;23.01;95.79;96901.72;5053335;28;20704;-60
2023/07/13 10:53:20;;;;;;;2.67;2.20;;;;;;;23.22;94.18;96889.78;5050186;28;20223;-60
2023/07/13 10:55:59;;;;;;;4.22;2.45;;;;;;;23.31;92.11;96896.59;5052183;28;20203;-60
2023/07/13 10:58:33;;;;;;;3.50;2.20;;;;;;;23.46;92.13;96899.81;5049883;28;20216;-61
2023/07/13 11:01:05;;;;;;;2.60;2.13;;;;;;;23.68;90.43;96892.19;5047931;28;20631;-60
2023/07/13 11:03:33;;;;;;;3.90;2.40;;;;;;;23.89;91.11;96889.13;5045604;28;20215;-61
2023/07/13 11:06:10;;;;;;;1.85;1.75;;;;;;;24.25;89.27;96888.41;5045728;28;20242;-61
2023/07/13 11:08:38;;;;;;;3.05;1.77;;;;;;;24.52;84.60;96883.56;5045658;28;20199;-60
2023/07/13 11:11:33;;;;;;;2.38;2.13;;;;;;;24.55;76.81;96886.63;5061002;28;20226;-61
2023/07/13 11:14:04;;;;;;;2.55;2.00;;;;;;;24.78;77.35;96894.91;5062199;28;20204;-61
2023/07/13 11:16:45;;;;;;;3.17;1.80;;;;;;;24.58;76.68;96888.91;5063026;28;20207;-61
2023/07/13 11:19:32;;;;;;;2.55;1.40;;;;;;;24.58;78.61;96879.97;5044039;28;20664;-61
2023/07/13 11:22:04;;;;;;;1.70;1.60;;;;;;;24.70;83.35;96881.69;5043726;28;20206;-60
2023/07/13 11:24:49;;;;;;;1.75;1.52;;;;;;;24.44;77.06;96878.47;5043882;28;20350;-58
2023/07/13 11:27:23;;;;;;;2.22;1.65;;;;;;;24.39;81.21;96876.44;5044141;28;20257;-59
2023/07/13 11:29:51;;;;;;;1.95;1.75;;;;;;;24.14;75.69;96881.03;5043788;28;20323;-59
2023/07/13 11:32:26;;;;;;;2.10;1.40;;;;;;;24.09;76.54;96876.25;5044311;28;20208;-60